Time,TemperatureF,DewpointF,PressureIn,WindDirection,WindDirectionDegrees,WindSpeedMPH,WindSpeedGustMPH,Humidity,HourlyPrecipIn,Conditions,Clouds,dailyrainin,SoftwareType,DateUTC
2013-09-16 00:01:00,57.8,55.8,30.07,WSW,244,1.1,0.0,93,0.00,CLR,,0.00,WeatherDisplay:10.37,2013-09-16 04:01:00,
2013-09-16 00:02:00,57.8,55.8,30.07,WSW,244,2.3,2.3,93,0.00,CLR,,0.00,WeatherDisplay:10.37,2013-09-16 04:02:00,
2013-09-16 00:07:00,57.8,55.8,30.07,WSW,244,2.3,2.3,93,0.00,CLR,,0.00,WeatherDisplay:10.37,2013-09-16 04:07:00,
2013-09-16 00:12:00,57.7,55.7,30.07,WSW,244,0.0,0.0,93,0.00,CLR,,0.00,WeatherDisplay:10.37,2013-09-16 04:12:00,
2013-09-16 00:17:00,57.8,55.8,30.07,WSW,244,0.0,0.0,93,0.00,CLR,,0.00,WeatherDisplay:10.37,2013-09-16 04:17:00,
2013-09-16 00:22:00,58.0,56.0,30.07,WSW,244,1.1,1.1,93,0.00,CLR,,0.00,WeatherDisplay:10.37,2013-09-16 04:22:00,
2013-09-16 00:27:00,58.1,56.1,30.07,WSW,244,1.1,0.0,93,0.00,CLR,,0.00,WeatherDisplay:10.37,2013-09-16 04:27:00,
2013-09-16 00:32:00,58.4,56.4,30.07,WSW,244,0.0,0.1,93,0.00,CLR,,0.00,WeatherDisplay:10.37,2013-09-16 04:32:00,
2013-09-16 00:37:00,58.5,56.5,30.07,WSW,244,1.1,1.1,93,0.00,CLR,,0.00,WeatherDisplay:10.37,2013-09-16 04:37:00,
2013-09-16 00:42:00,58.6,56.6,30.07,WSW,244,0.0,0.0,93,0.00,CLR,,0.00,WeatherDisplay:10.37,2013-09-16 04:42:00,
2013-09-16 00:47:00,58.7,56.7,30.07,WSW,244,2.3,2.3,93,0.00,CLR,,0.00,WeatherDisplay:10.37,2013-09-16 04:47:00,
2013-09-16 00:52:00,58.7,56.7,30.06,WSW,244,0.0,0.0,93,0.00,CLR,,0.00,WeatherDisplay:10.37,2013-09-16 04:52:00,
2013-09-16 00:57:00,58.9,57.2,30.06,WSW,244,0.0,0.0,94,0.00,CLR,,0.00,WeatherDisplay:10.37,2013-09-16 04:57:00,
2013-09-16 01:02:00,59.0,57.3,30.06,WSW,244,0.0,0.0,94,0.00,CLR,,0.00,WeatherDisplay:10.37,2013-09-16 05:02:00,
2013-09-16 01:07:00,59.1,57.4,30.06,WSW,244,1.1,0.0,94,0.00,CLR,,0.00,WeatherDisplay:10.37,2013-09-16 05:07:00,
2013-09-16 01:12:00,59.1,57.4,30.06,WSW,244,0.0,0.0,94,0.00,CLR,,0.00,WeatherDisplay:10.37,2013-09-16 05:12:00,
2013-09-16 01:17:00,58.9,57.2,30.06,WSW,244,2.3,2.3,94,0.00,CLR,,0.00,WeatherDisplay:10.37,2013-09-16 05:17:00,
2013-09-16 01:22:00,58.9,57.2,30.05,WSW,244,1.1,1.1,94,0.00,CLR,,0.00,WeatherDisplay:10.37,2013-09-16 05:22:00,
2013-09-16 01:27:00,58.8,57.1,30.05,WSW,244,0.0,0.1,94,0.00,CLR,,0.00,WeatherDisplay:10.37,2013-09-16 05:27:00,
2013-09-16 01:32:00,58.8,57.1,30.05,WSW,244,0.0,0.0,94,0.00,CLR,,0.00,WeatherDisplay:10.37,2013-09-16 05:32:00,
2013-09-16 01:37:00,58.8,57.1,30.05,WSW,244,0.0,0.0,94,0.00,CLR,,0.00,WeatherDisplay:10.37,2013-09-16 05:37:00,
2013-09-16 01:42:00,58.8,57.1,30.05,WSW,244,1.1,0.0,94,0.00,CLR,,0.00,WeatherDisplay:10.37,2013-09-16 05:42:00,
2013-09-16 01:47:00,58.7,57.0,30.05,WSW,244,0.0,0.0,94,0.00,CLR,,0.00,WeatherDisplay:10.37,2013-09-16 05:47:00,
2013-09-16 01:52:00,58.7,57.0,30.05,WSW,244,0.0,0.0,94,0.00,CLR,,0.00,WeatherDisplay:10.37,2013-09-16 05:52:00,
2013-09-16 01:57:00,58.7,57.0,30.04,WSW,244,2.0,2.0,94,0.00,CLR,,0.00,WeatherDisplay:10.37,2013-09-16 05:57:00,
2013-09-16 02:02:00,58.6,56.9,30.04,WSW,244,2.3,2.3,94,0.00,CLR,,0.00,WeatherDisplay:10.37,2013-09-16 06:02:00,
2013-09-16 02:07:00,58.5,56.8,30.04,WSW,244,1.1,1.1,94,0.00,CLR,,0.00,WeatherDisplay:10.37,2013-09-16 06:07:00,
2013-09-16 02:12:00,58.4,56.7,30.04,WSW,244,2.3,2.3,94,0.00,CLR,,0.00,WeatherDisplay:10.37,2013-09-16 06:12:00,
2013-09-16 02:17:00,58.3,56.6,30.04,WSW,244,1.1,1.1,94,0.00,CLR,,0.00,WeatherDisplay:10.37,2013-09-16 06:17:00,
2013-09-16 02:22:00,58.2,56.5,30.04,WSW,244,3.5,3.5,94,0.00,CLR,,0.00,WeatherDisplay:10.37,2013-09-16 06:22:00,
2013-09-16 02:27:00,58.1,56.4,30.04,WSW,244,1.1,0.0,94,0.00,CLR,,0.00,WeatherDisplay:10.37,2013-09-16 06:27:00,
2013-09-16 02:32:00,58.1,56.4,30.04,WSW,244,0.0,0.1,94,0.00,CLR,,0.00,WeatherDisplay:10.37,2013-09-16 06:32:00,
2013-09-16 02:37:00,58.2,56.8,30.04,WSW,244,1.1,1.1,95,0.00,CLR,,0.00,WeatherDisplay:10.37,2013-09-16 06:37:00,
2013-09-16 02:42:00,58.3,56.9,30.04,WSW,244,1.1,0.0,95,0.00,CLR,,0.00,WeatherDisplay:10.37,2013-09-16 06:42:00,
2013-09-16 02:47:00,58.3,56.9,30.04,WSW,244,2.3,2.3,95,0.00,CLR,,0.00,WeatherDisplay:10.37,2013-09-16 06:47:00,
2013-09-16 02:52:00,58.2,56.8,30.04,WSW,244,2.3,2.3,95,0.00,CLR,,0.00,WeatherDisplay:10.37,2013-09-16 06:52:00,
2013-09-16 02:57:00,58.1,56.4,30.04,WSW,244,1.1,0.0,94,0.00,CLR,,0.00,WeatherDisplay:10.37,2013-09-16 06:57:00,
2013-09-16 03:02:00,58.0,56.6,30.04,WSW,244,0.0,0.0,95,0.00,CLR,,0.00,WeatherDisplay:10.37,2013-09-16 07:02:00,
2013-09-16 03:07:00,58.0,56.6,30.04,WSW,244,0.0,0.0,95,0.00,CLR,,0.00,WeatherDisplay:10.37,2013-09-16 07:07:00,
2013-09-16 03:12:00,58.3,56.9,30.04,WSW,244,2.3,2.3,95,0.00,CLR,,0.00,WeatherDisplay:10.37,2013-09-16 07:12:00,
2013-09-16 03:17:00,58.2,56.8,30.04,WSW,244,0.0,0.0,95,0.00,CLR,,0.00,WeatherDisplay:10.37,2013-09-16 07:17:00,
2013-09-16 03:22:00,58.2,56.8,30.04,WSW,244,1.1,0.0,95,0.00,CLR,,0.00,WeatherDisplay:10.37,2013-09-16 07:22:00,
2013-09-16 03:27:00,58.1,56.7,30.04,WSW,244,1.1,0.0,95,0.00,CLR,,0.00,WeatherDisplay:10.37,2013-09-16 07:27:00,
2013-09-16 03:32:00,58.1,56.7,30.04,WSW,244,0.0,0.0,95,0.00,CLR,,0.00,WeatherDisplay:10.37,2013-09-16 07:32:00,
2013-09-16 03:37:00,58.1,56.7,30.04,WSW,244,0.0,0.0,95,0.00,CLR,,0.00,WeatherDisplay:10.37,2013-09-16 07:37:00,
2013-09-16 03:42:00,58.1,56.7,30.04,WSW,244,0.0,0.0,95,0.00,CLR,,0.00,WeatherDisplay:10.37,2013-09-16 07:42:00,
2013-09-16 03:47:00,58.2,56.8,30.04,WSW,244,0.0,0.0,95,0.00,CLR,,0.00,WeatherDisplay:10.37,2013-09-16 07:47:00,
2013-09-16 03:52:00,58.1,56.7,30.04,WSW,244,2.0,2.0,95,0.00,CLR,,0.00,WeatherDisplay:10.37,2013-09-16 07:52:00,
2013-09-16 03:57:00,58.1,56.7,30.04,WSW,244,2.3,2.3,95,0.00,CLR,,0.00,WeatherDisplay:10.37,2013-09-16 07:57:00,
2013-09-16 04:02:00,58.2,56.8,30.04,WSW,244,0.0,0.0,95,0.00,CLR,,0.00,WeatherDisplay:10.37,2013-09-16 08:02:00,
2013-09-16 04:07:00,58.2,56.8,30.04,WSW,244,0.0,0.0,95,0.00,CLR,,0.00,WeatherDisplay:10.37,2013-09-16 08:07:00,
2013-09-16 04:12:00,58.2,56.8,30.04,WSW,244,0.0,0.0,95,0.00,CLR,,0.00,WeatherDisplay:10.37,2013-09-16 08:12:00,
2013-09-16 04:17:00,58.1,56.7,30.04,WSW,244,1.1,0.0,95,0.00,CLR,,0.00,WeatherDisplay:10.37,2013-09-16 08:17:00,
2013-09-16 04:22:00,58.1,56.7,30.04,WSW,244,0.0,0.0,95,0.00,CLR,,0.00,WeatherDisplay:10.37,2013-09-16 08:22:00,
2013-09-16 04:27:00,58.2,56.8,30.04,WSW,244,3.0,3.0,95,0.00,CLR,,0.00,WeatherDisplay:10.37,2013-09-16 08:27:00,
2013-09-16 04:32:00,58.2,56.8,30.04,WSW,244,3.5,3.5,95,0.00,CLR,,0.00,WeatherDisplay:10.37,2013-09-16 08:32:00,
2013-09-16 04:37:00,58.3,57.2,30.04,WSW,244,3.5,3.5,96,0.00,CLR,,0.00,WeatherDisplay:10.37,2013-09-16 08:37:00,
2013-09-16 04:42:00,58.4,57.3,30.04,WSW,244,3.5,3.5,96,0.00,CLR,,0.00,WeatherDisplay:10.37,2013-09-16 08:42:00,
2013-09-16 04:47:00,58.5,57.4,30.04,WSW,244,2.3,0.0,96,0.00,CLR,,0.00,WeatherDisplay:10.37,2013-09-16 08:47:00,
2013-09-16 04:52:00,58.6,57.5,30.04,WSW,244,3.5,3.5,96,0.00,CLR,,0.00,WeatherDisplay:10.37,2013-09-16 08:52:00,
2013-09-16 04:57:00,58.7,57.6,30.04,WSW,244,1.1,1.1,96,0.00,CLR,,0.00,WeatherDisplay:10.37,2013-09-16 08:57:00,
2013-09-16 05:02:00,58.7,57.6,30.03,WSW,244,1.1,0.0,96,0.00,FEW,,0.00,WeatherDisplay:10.37,2013-09-16 09:02:00,
2013-09-16 05:07:00,58.8,57.7,30.03,WSW,244,1.1,0.0,96,0.00,FEW,,0.00,WeatherDisplay:10.37,2013-09-16 09:07:00,
2013-09-16 05:12:00,58.8,57.7,30.03,WSW,244,3.5,3.5,96,0.00,FEW,,0.00,WeatherDisplay:10.37,2013-09-16 09:12:00,
2013-09-16 05:17:00,58.9,57.8,30.03,WSW,244,0.0,0.0,96,0.00,FEW,,0.00,WeatherDisplay:10.37,2013-09-16 09:17:00,
2013-09-16 05:22:00,58.9,57.8,30.03,WSW,244,1.1,0.0,96,0.00,FEW,,0.00,WeatherDisplay:10.37,2013-09-16 09:22:00,
2013-09-16 05:27:00,58.9,57.8,30.03,WSW,244,0.0,0.0,96,0.00,FEW,,0.00,WeatherDisplay:10.37,2013-09-16 09:27:00,
2013-09-16 05:32:00,58.8,57.7,30.03,WSW,244,2.3,0.0,96,0.00,FEW,,0.00,WeatherDisplay:10.37,2013-09-16 09:32:00,
2013-09-16 05:37:00,58.7,57.6,30.03,WSW,244,0.0,0.0,96,0.00,FEW,,0.00,WeatherDisplay:10.37,2013-09-16 09:37:00,
2013-09-16 05:42:00,58.6,57.5,30.03,WSW,244,0.0,0.0,96,0.00,FEW,,0.00,WeatherDisplay:10.37,2013-09-16 09:42:00,
2013-09-16 05:47:00,58.5,57.4,30.03,WSW,244,0.0,0.0,96,0.00,FEW,,0.00,WeatherDisplay:10.37,2013-09-16 09:47:00,
2013-09-16 05:52:00,58.6,57.5,30.03,WSW,244,0.0,0.0,96,0.00,FEW,,0.00,WeatherDisplay:10.37,2013-09-16 09:52:00,
2013-09-16 05:57:00,58.7,57.6,30.03,WSW,244,0.0,0.0,96,0.00,FEW,,0.00,WeatherDisplay:10.37,2013-09-16 09:57:00,
2013-09-16 06:02:00,58.8,57.7,30.03,WSW,244,2.3,0.0,96,0.00,BKN,,0.00,WeatherDisplay:10.37,2013-09-16 10:02:00,
2013-09-16 06:07:00,59.0,57.9,30.03,WSW,244,0.0,0.0,96,0.00,BKN,,0.00,WeatherDisplay:10.37,2013-09-16 10:07:00,
2013-09-16 06:12:00,59.0,57.9,30.03,WSW,244,1.1,0.0,96,0.00,BKN,,0.00,WeatherDisplay:10.37,2013-09-16 10:12:00,
2013-09-16 06:17:00,59.0,57.9,30.03,WSW,244,0.0,0.0,96,0.00,BKN,,0.00,WeatherDisplay:10.37,2013-09-16 10:17:00,
2013-09-16 06:22:00,59.0,57.9,30.03,WSW,244,0.0,0.0,96,0.00,BKN,,0.00,WeatherDisplay:10.37,2013-09-16 10:22:00,
2013-09-16 06:27:00,59.1,58.0,30.04,WSW,244,2.3,2.3,96,0.00,BKN,,0.00,WeatherDisplay:10.37,2013-09-16 10:27:00,
2013-09-16 06:32:00,59.1,58.0,30.04,WSW,244,0.0,0.0,96,0.00,BKN,,0.00,WeatherDisplay:10.37,2013-09-16 10:32:00,
2013-09-16 06:37:00,59.1,58.0,30.04,WSW,244,0.0,0.0,96,0.00,BKN,,0.00,WeatherDisplay:10.37,2013-09-16 10:37:00,
2013-09-16 06:42:00,59.1,58.0,30.04,WSW,244,1.1,1.1,96,0.00,BKN,,0.00,WeatherDisplay:10.37,2013-09-16 10:42:00,
2013-09-16 06:47:00,59.0,57.9,30.04,WSW,244,0.0,0.0,96,0.00,BKN,,0.00,WeatherDisplay:10.37,2013-09-16 10:47:00,
2013-09-16 06:52:00,59.1,58.0,30.05,WSW,244,1.1,1.1,96,0.00,BKN,,0.00,WeatherDisplay:10.37,2013-09-16 10:52:00,
2013-09-16 06:57:00,59.1,58.0,30.05,WSW,244,0.0,0.0,96,0.00,BKN,,0.00,WeatherDisplay:10.37,2013-09-16 10:57:00,
2013-09-16 07:02:00,59.1,58.0,30.04,WSW,244,0.0,0.0,96,0.00,BKN,,0.00,WeatherDisplay:10.37,2013-09-16 11:02:00,
2013-09-16 07:07:00,59.1,58.0,30.04,WSW,244,2.3,2.3,96,0.00,BKN,,0.00,WeatherDisplay:10.37,2013-09-16 11:07:00,
2013-09-16 07:12:00,59.2,58.1,30.04,WSW,244,3.5,3.5,96,0.00,BKN,,0.00,WeatherDisplay:10.37,2013-09-16 11:12:00,
2013-09-16 07:17:00,59.3,58.2,30.04,WSW,244,2.3,2.3,96,0.00,BKN,,0.00,WeatherDisplay:10.37,2013-09-16 11:17:00,
2013-09-16 07:22:00,59.4,58.3,30.04,WSW,244,1.1,1.1,96,0.00,BKN,,0.00,WeatherDisplay:10.37,2013-09-16 11:22:00,
2013-09-16 07:27:00,59.3,58.2,30.04,WSW,244,3.5,3.5,96,0.00,BKN,,0.00,WeatherDisplay:10.37,2013-09-16 11:27:00,
2013-09-16 07:32:00,59.4,58.3,30.04,WSW,244,0.0,0.0,96,0.00,BKN,,0.00,WeatherDisplay:10.37,2013-09-16 11:32:00,
2013-09-16 07:37:00,59.6,58.5,30.04,WSW,244,2.3,2.3,96,0.00,BKN,,0.00,WeatherDisplay:10.37,2013-09-16 11:37:00,
2013-09-16 07:42:00,59.6,58.5,30.04,WSW,244,2.3,2.3,96,0.00,BKN,,0.00,WeatherDisplay:10.37,2013-09-16 11:42:00,
2013-09-16 07:47:00,59.7,58.6,30.04,WSW,244,2.3,2.3,96,0.00,BKN,,0.00,WeatherDisplay:10.37,2013-09-16 11:47:00,
2013-09-16 07:52:00,59.9,58.8,30.04,WSW,244,1.1,1.1,96,0.00,BKN,,0.00,WeatherDisplay:10.37,2013-09-16 11:52:00,
2013-09-16 07:57:00,60.0,58.9,30.04,WSW,244,3.5,3.5,96,0.00,BKN,,0.00,WeatherDisplay:10.37,2013-09-16 11:57:00,
2013-09-16 08:02:00,59.9,58.8,30.05,NNW,342,5.0,5.0,96,0.00,OVC,,0.00,WeatherDisplay:10.37,2013-09-16 12:02:00,
2013-09-16 08:07:00,59.8,58.4,30.05,NW,305,10.4,10.4,95,0.00,OVC,,0.00,WeatherDisplay:10.37,2013-09-16 12:07:00,
2013-09-16 08:12:00,59.2,57.8,30.05,West,273,8.1,8.1,95,0.01,RA,,0.01,WeatherDisplay:10.37,2013-09-16 12:12:00,
2013-09-16 08:17:00,59.0,57.6,30.05,NW,310,3.5,3.5,95,0.01,RA,,0.01,WeatherDisplay:10.37,2013-09-16 12:17:00,
2013-09-16 08:22:00,59.1,57.7,30.05,NW,321,3.5,3.5,95,0.01,OVC,,0.01,WeatherDisplay:10.37,2013-09-16 12:22:00,
2013-09-16 08:27:00,59.1,57.7,30.05,NW,316,2.3,2.3,95,0.01,OVC,,0.01,WeatherDisplay:10.37,2013-09-16 12:27:00,
2013-09-16 08:32:00,59.2,57.5,30.05,NW,313,2.3,2.3,94,0.01,OVC,,0.01,WeatherDisplay:10.37,2013-09-16 12:32:00,
2013-09-16 08:37:00,59.2,57.5,30.05,NNW,339,2.3,2.3,94,0.01,OVC,,0.01,WeatherDisplay:10.37,2013-09-16 12:37:00,
2013-09-16 08:42:00,59.4,57.7,30.05,NNW,330,3.5,3.5,94,0.01,OVC,,0.01,WeatherDisplay:10.37,2013-09-16 12:42:00,
2013-09-16 08:47:00,59.4,57.4,30.05,NNW,327,2.3,2.3,93,0.01,OVC,,0.01,WeatherDisplay:10.37,2013-09-16 12:47:00,
2013-09-16 08:52:00,59.6,57.6,30.05,NW,312,3.0,3.0,93,0.01,OVC,,0.01,WeatherDisplay:10.37,2013-09-16 12:52:00,
2013-09-16 08:57:00,59.6,57.6,30.04,NW,312,1.1,1.1,93,0.01,OVC,,0.01,WeatherDisplay:10.37,2013-09-16 12:57:00,
2013-09-16 09:02:00,59.8,57.8,30.04,NNW,346,8.1,8.1,93,0.01,OVC,,0.01,WeatherDisplay:10.37,2013-09-16 13:02:00,
2013-09-16 09:07:00,60.0,58.0,30.05,NNW,329,8.1,8.1,93,0.01,OVC,,0.01,WeatherDisplay:10.37,2013-09-16 13:07:00,
2013-09-16 09:12:00,60.0,57.7,30.05,NNW,332,6.9,6.9,92,0.00,OVC,,0.01,WeatherDisplay:10.37,2013-09-16 13:12:00,
2013-09-16 09:17:00,60.1,57.8,30.05,NNW,336,8.1,8.1,92,0.00,OVC,,0.01,WeatherDisplay:10.37,2013-09-16 13:17:00,
2013-09-16 09:22:00,60.1,57.2,30.05,North,360,8.1,8.1,90,0.00,OVC,,0.01,WeatherDisplay:10.37,2013-09-16 13:22:00,
2013-09-16 09:27:00,60.2,57.3,30.05,NNW,330,5.8,5.8,90,0.00,OVC,,0.01,WeatherDisplay:10.37,2013-09-16 13:27:00,
2013-09-16 09:32:00,60.4,57.5,30.05,NW,322,3.5,3.5,90,0.00,OVC,,0.01,WeatherDisplay:10.37,2013-09-16 13:32:00,
2013-09-16 09:37:00,60.4,57.1,30.06,NW,319,5.8,5.8,89,0.00,OVC,,0.01,WeatherDisplay:10.37,2013-09-16 13:37:00,
2013-09-16 09:42:00,60.4,57.1,30.05,NW,324,3.5,3.5,89,0.00,OVC,,0.01,WeatherDisplay:10.37,2013-09-16 13:42:00,
2013-09-16 09:47:00,60.5,56.9,30.05,North,350,4.6,4.6,88,0.00,OVC,,0.01,WeatherDisplay:10.37,2013-09-16 13:47:00,
2013-09-16 09:52:00,60.7,57.1,30.05,North,349,9.2,9.2,88,0.00,OVC,,0.01,WeatherDisplay:10.37,2013-09-16 13:52:00,
2013-09-16 09:57:00,60.8,57.2,30.06,NW,322,6.9,6.9,88,0.00,OVC,,0.01,WeatherDisplay:10.37,2013-09-16 13:57:00,
2013-09-16 10:02:00,60.9,57.6,30.06,NW,316,4.6,4.6,89,0.00,OVC,,0.01,WeatherDisplay:10.37,2013-09-16 14:02:00,
2013-09-16 10:07:00,60.8,57.2,30.06,NW,317,8.1,8.1,88,0.00,OVC,,0.01,WeatherDisplay:10.37,2013-09-16 14:07:00,
2013-09-16 10:12:00,60.7,56.8,30.06,NW,322,10.4,10.4,87,0.00,OVC,,0.01,WeatherDisplay:10.37,2013-09-16 14:12:00,
2013-09-16 10:17:00,60.9,57.3,30.06,North,355,5.8,5.8,88,0.00,OVC,,0.01,WeatherDisplay:10.37,2013-09-16 14:17:00,
2013-09-16 10:22:00,61.1,57.5,30.06,North,350,9.2,9.2,88,0.00,OVC,,0.01,WeatherDisplay:10.37,2013-09-16 14:22:00,
2013-09-16 10:27:00,61.3,57.7,30.06,North,11,6.9,6.9,88,0.00,OVC,,0.01,WeatherDisplay:10.37,2013-09-16 14:27:00,
2013-09-16 10:32:00,61.3,57.4,30.06,North,360,5.8,5.8,87,0.00,OVC,,0.01,WeatherDisplay:10.37,2013-09-16 14:32:00,
2013-09-16 10:37:00,61.4,57.5,30.06,North,355,7.0,7.0,87,0.00,OVC,,0.01,WeatherDisplay:10.37,2013-09-16 14:37:00,
2013-09-16 10:42:00,61.4,56.8,30.07,NW,312,8.1,8.1,85,0.00,OVC,,0.01,WeatherDisplay:10.37,2013-09-16 14:42:00,
2013-09-16 10:47:00,61.3,56.8,30.07,NNW,343,10.4,10.4,85,0.00,OVC,,0.01,WeatherDisplay:10.37,2013-09-16 14:47:00,
2013-09-16 10:52:00,61.4,56.8,30.07,NW,311,5.0,5.0,85,0.00,OVC,,0.01,WeatherDisplay:10.37,2013-09-16 14:52:00,
2013-09-16 10:57:00,61.4,56.5,30.07,NW,317,5.8,5.8,84,0.00,OVC,,0.01,WeatherDisplay:10.37,2013-09-16 14:57:00,
2013-09-16 11:02:00,61.4,56.5,30.07,NW,317,3.5,3.5,84,0.00,OVC,,0.01,WeatherDisplay:10.37,2013-09-16 15:02:00,
2013-09-16 11:07:00,61.4,56.5,30.07,North,360,5.8,5.8,84,0.00,OVC,,0.01,WeatherDisplay:10.37,2013-09-16 15:07:00,
2013-09-16 11:12:00,61.4,56.5,30.07,North,360,5.8,5.8,84,0.00,OVC,,0.01,WeatherDisplay:10.37,2013-09-16 15:12:00,
2013-09-16 11:17:00,61.4,56.8,30.06,NNW,339,5.8,5.8,85,0.00,OVC,,0.01,WeatherDisplay:10.37,2013-09-16 15:17:00,
2013-09-16 11:22:00,61.4,56.8,30.06,North,360,5.8,5.8,85,0.00,OVC,,0.01,WeatherDisplay:10.37,2013-09-16 15:22:00,
2013-09-16 11:27:00,61.3,57.1,30.06,NNW,346,7.0,7.0,86,0.00,OVC,,0.01,WeatherDisplay:10.37,2013-09-16 15:27:00,
2013-09-16 11:32:00,61.2,57.0,30.07,NW,312,6.9,6.9,86,0.00,OVC,,0.01,WeatherDisplay:10.37,2013-09-16 15:32:00,
2013-09-16 11:37:00,60.9,56.4,30.07,NW,323,9.2,9.2,85,0.00,OVC,,0.01,WeatherDisplay:10.37,2013-09-16 15:37:00,
2013-09-16 11:42:00,60.9,56.7,30.06,NW,316,3.5,3.5,86,0.00,OVC,,0.01,WeatherDisplay:10.37,2013-09-16 15:42:00,
2013-09-16 11:47:00,60.9,57.0,30.06,NW,320,3.5,3.5,87,0.00,OVC,,0.01,WeatherDisplay:10.37,2013-09-16 15:47:00,
2013-09-16 11:52:00,60.9,57.0,30.06,NNW,346,3.0,3.0,87,0.00,OVC,,0.01,WeatherDisplay:10.37,2013-09-16 15:52:00,
2013-09-16 11:57:00,61.0,57.4,30.06,NW,311,4.0,4.0,88,0.00,OVC,,0.01,WeatherDisplay:10.37,2013-09-16 15:57:00,
2013-09-16 12:02:00,60.9,57.0,30.06,NW,307,3.5,3.5,87,0.00,OVC,,0.01,WeatherDisplay:10.37,2013-09-16 16:02:00,
2013-09-16 12:07:00,60.8,56.9,30.05,NW,316,3.5,3.5,87,0.00,OVC,,0.01,WeatherDisplay:10.37,2013-09-16 16:07:00,
2013-09-16 12:12:00,60.9,56.7,30.05,NW,308,3.5,3.5,86,0.00,OVC,,0.01,WeatherDisplay:10.37,2013-09-16 16:12:00,
2013-09-16 12:17:00,61.0,56.8,30.05,NW,326,4.6,4.6,86,0.00,OVC,,0.01,WeatherDisplay:10.37,2013-09-16 16:17:00,
2013-09-16 12:22:00,61.0,56.5,30.05,NNW,337,5.8,5.8,85,0.00,OVC,,0.01,WeatherDisplay:10.37,2013-09-16 16:22:00,
2013-09-16 12:27:00,61.2,56.7,30.05,NNW,327,5.8,5.8,85,0.00,OVC,,0.01,WeatherDisplay:10.37,2013-09-16 16:27:00,
2013-09-16 12:32:00,61.3,56.4,30.05,NNW,339,4.6,4.6,84,0.00,OVC,,0.01,WeatherDisplay:10.37,2013-09-16 16:32:00,
2013-09-16 12:37:00,61.4,56.2,30.05,NW,321,6.9,6.9,83,0.00,OVC,,0.01,WeatherDisplay:10.37,2013-09-16 16:37:00,
2013-09-16 12:42:00,61.5,56.3,30.05,NNW,330,3.5,3.5,83,0.00,OVC,,0.01,WeatherDisplay:10.37,2013-09-16 16:42:00,
2013-09-16 12:47:00,61.7,56.5,30.05,North,350,4.6,4.6,83,0.00,OVC,,0.01,WeatherDisplay:10.37,2013-09-16 16:47:00,
2013-09-16 12:52:00,61.8,56.6,30.05,North,350,4.6,4.6,83,0.00,OVC,,0.01,WeatherDisplay:10.37,2013-09-16 16:52:00,
2013-09-16 12:57:00,62.2,56.6,30.04,North,350,4.0,4.0,82,0.00,OVC,,0.01,WeatherDisplay:10.37,2013-09-16 16:57:00,
2013-09-16 13:02:00,62.4,56.8,30.04,NNW,342,3.5,3.6,82,0.00,OVC,,0.01,WeatherDisplay:10.37,2013-09-16 17:02:00,
2013-09-16 13:07:00,62.6,57.0,30.04,NNW,339,4.6,4.6,82,0.00,OVC,,0.01,WeatherDisplay:10.37,2013-09-16 17:07:00,
2013-09-16 13:12:00,62.9,57.0,30.04,West,268,4.6,4.6,81,0.00,OVC,,0.01,WeatherDisplay:10.37,2013-09-16 17:12:00,
2013-09-16 13:17:00,63.2,56.2,30.04,NNW,329,6.9,6.9,78,0.00,OVC,,0.01,WeatherDisplay:10.37,2013-09-16 17:17:00,
2013-09-16 13:22:00,63.5,55.8,30.04,NNW,335,8.1,8.1,76,0.00,OVC,,0.01,WeatherDisplay:10.37,2013-09-16 17:22:00,
2013-09-16 13:27:00,63.7,56.0,30.04,NNW,348,11.5,11.5,76,0.00,OVC,,0.01,WeatherDisplay:10.37,2013-09-16 17:27:00,
2013-09-16 13:32:00,64.0,56.6,30.04,NNW,329,9.2,9.2,77,0.00,OVC,,0.01,WeatherDisplay:10.37,2013-09-16 17:32:00,
2013-09-16 13:37:00,64.2,56.5,30.04,NW,325,9.2,9.2,76,0.00,OVC,,0.01,WeatherDisplay:10.37,2013-09-16 17:37:00,
2013-09-16 13:42:00,64.3,56.6,30.04,NW,313,8.1,8.1,76,0.00,OVC,,0.01,WeatherDisplay:10.37,2013-09-16 17:42:00,
2013-09-16 13:47:00,64.5,56.4,30.04,NW,308,7.0,7.0,75,0.00,OVC,,0.01,WeatherDisplay:10.37,2013-09-16 17:47:00,
2013-09-16 13:52:00,64.6,56.5,30.04,WNW,302,11.5,11.5,75,0.00,OVC,,0.01,WeatherDisplay:10.37,2013-09-16 17:52:00,
2013-09-16 13:57:00,64.8,56.3,30.04,WNW,302,10.4,10.4,74,0.00,OVC,,0.01,WeatherDisplay:10.37,2013-09-16 17:57:00,
2013-09-16 14:02:00,65.0,56.5,30.04,WNW,300,9.2,9.2,74,0.00,BKN,,0.01,WeatherDisplay:10.37,2013-09-16 18:02:00,
2013-09-16 14:07:00,65.2,56.7,30.04,NW,325,11.5,11.5,74,0.00,BKN,,0.01,WeatherDisplay:10.37,2013-09-16 18:07:00,
2013-09-16 14:12:00,65.4,57.3,30.04,North,355,7.0,7.0,75,0.00,BKN,,0.01,WeatherDisplay:10.37,2013-09-16 18:12:00,
2013-09-16 14:17:00,65.8,57.3,30.03,WNW,296,8.1,8.1,74,0.00,BKN,,0.01,WeatherDisplay:10.37,2013-09-16 18:17:00,
2013-09-16 14:22:00,66.0,57.1,30.03,NW,313,10.0,10.0,73,0.00,BKN,,0.01,WeatherDisplay:10.37,2013-09-16 18:22:00,
2013-09-16 14:27:00,66.2,56.9,30.03,NW,323,10.4,10.4,72,0.00,BKN,,0.01,WeatherDisplay:10.37,2013-09-16 18:27:00,
2013-09-16 14:32:00,66.4,57.1,30.03,NW,324,9.2,9.2,72,0.00,BKN,,0.01,WeatherDisplay:10.37,2013-09-16 18:32:00,
2013-09-16 14:37:00,66.7,57.4,30.03,WNW,300,12.7,12.7,72,0.00,BKN,,0.01,WeatherDisplay:10.37,2013-09-16 18:37:00,
2013-09-16 14:42:00,66.9,57.2,30.03,WNW,292,5.0,5.8,71,0.00,BKN,,0.01,WeatherDisplay:10.37,2013-09-16 18:42:00,
2013-09-16 14:47:00,67.2,56.7,30.03,WNW,289,12.7,12.7,69,0.00,BKN,,0.01,WeatherDisplay:10.37,2013-09-16 18:47:00,
2013-09-16 14:52:00,67.6,57.1,30.02,North,355,10.4,10.4,69,0.00,BKN,,0.01,WeatherDisplay:10.37,2013-09-16 18:52:00,
2013-09-16 14:57:00,67.8,56.9,30.02,NNW,347,9.0,9.0,68,0.00,BKN,,0.01,WeatherDisplay:10.37,2013-09-16 18:57:00,
2013-09-16 15:02:00,68.1,57.5,30.02,NNW,335,8.0,8.0,69,0.00,BKN,,0.01,WeatherDisplay:10.37,2013-09-16 19:02:00,
2013-09-16 15:07:00,68.4,57.4,30.02,NNW,336,9.2,9.2,68,0.00,BKN,,0.01,WeatherDisplay:10.37,2013-09-16 19:07:00,
2013-09-16 15:12:00,68.4,57.0,30.02,North,360,9.2,9.2,67,0.00,BKN,,0.01,WeatherDisplay:10.37,2013-09-16 19:12:00,
2013-09-16 15:17:00,68.1,56.7,30.02,NW,322,11.5,11.5,67,0.00,BKN,,0.01,WeatherDisplay:10.37,2013-09-16 19:17:00,
2013-09-16 15:22:00,67.7,55.5,30.02,NNW,341,11.5,11.5,65,0.00,BKN,,0.01,WeatherDisplay:10.37,2013-09-16 19:22:00,
2013-09-16 15:27:00,67.4,56.1,30.02,NNW,339,8.1,8.1,67,0.00,BKN,,0.01,WeatherDisplay:10.37,2013-09-16 19:27:00,
2013-09-16 15:32:00,67.3,56.0,30.02,NW,321,6.9,6.9,67,0.00,BKN,,0.01,WeatherDisplay:10.37,2013-09-16 19:32:00,
2013-09-16 15:37:00,67.3,56.4,30.02,NW,315,5.8,5.8,68,0.00,BKN,,0.01,WeatherDisplay:10.37,2013-09-16 19:37:00,
2013-09-16 15:42:00,67.5,56.6,30.02,NW,326,7.0,7.0,68,0.00,BKN,,0.01,WeatherDisplay:10.37,2013-09-16 19:42:00,
2013-09-16 15:47:00,67.7,56.3,30.02,NW,321,6.9,6.9,67,0.00,BKN,,0.01,WeatherDisplay:10.37,2013-09-16 19:47:00,
2013-09-16 15:52:00,68.3,56.9,30.02,NNW,330,6.9,6.9,67,0.00,BKN,,0.01,WeatherDisplay:10.37,2013-09-16 19:52:00,
2013-09-16 15:57:00,68.7,56.9,30.02,North,360,6.9,6.9,66,0.00,BKN,,0.01,WeatherDisplay:10.37,2013-09-16 19:57:00,
2013-09-16 16:02:00,69.1,57.7,30.02,NW,321,9.2,9.2,67,0.00,BKN,,0.01,WeatherDisplay:10.37,2013-09-16 20:02:00,
2013-09-16 16:07:00,69.4,57.1,30.02,NNW,348,9.0,9.0,65,0.00,BKN,,0.01,WeatherDisplay:10.37,2013-09-16 20:07:00,
2013-09-16 16:12:00,69.5,57.6,30.02,NNE,15,13.8,13.8,66,0.00,BKN,,0.01,WeatherDisplay:10.37,2013-09-16 20:12:00,
2013-09-16 16:17:00,69.2,57.8,30.02,North,5,12.7,12.7,67,0.00,BKN,,0.01,WeatherDisplay:10.37,2013-09-16 20:17:00,
2013-09-16 16:22:00,69.2,58.2,30.02,North,9,9.2,9.2,68,0.00,BKN,,0.01,WeatherDisplay:10.37,2013-09-16 20:22:00,
2013-09-16 16:27:00,69.0,57.6,30.02,North,9,8.1,8.1,67,0.00,BKN,,0.01,WeatherDisplay:10.37,2013-09-16 20:27:00,
2013-09-16 16:32:00,68.7,56.9,30.02,North,350,8.1,8.1,66,0.00,BKN,,0.01,WeatherDisplay:10.37,2013-09-16 20:32:00,
2013-09-16 16:37:00,68.5,57.1,30.03,NNW,343,10.4,10.4,67,0.00,BKN,,0.01,WeatherDisplay:10.37,2013-09-16 20:37:00,
2013-09-16 16:42:00,68.4,56.2,30.03,NNW,345,11.5,11.5,65,0.00,BKN,,0.01,WeatherDisplay:10.37,2013-09-16 20:42:00,
2013-09-16 16:47:00,68.3,55.6,30.03,North,350,11.0,11.0,64,0.00,BKN,,0.01,WeatherDisplay:10.37,2013-09-16 20:47:00,
2013-09-16 16:52:00,68.2,56.0,30.03,North,360,9.2,9.2,65,0.00,BKN,,0.01,WeatherDisplay:10.37,2013-09-16 20:52:00,
2013-09-16 16:57:00,68.2,55.1,30.03,North,350,10.4,10.4,63,0.00,BKN,,0.01,WeatherDisplay:10.37,2013-09-16 20:57:00,
2013-09-16 17:02:00,68.3,55.2,30.03,North,355,9.2,9.2,63,0.00,BKN,,0.01,WeatherDisplay:10.37,2013-09-16 21:02:00,
2013-09-16 17:07:00,68.7,55.6,30.03,NNE,13,8.1,8.1,63,0.00,BKN,,0.01,WeatherDisplay:10.37,2013-09-16 21:07:00,
2013-09-16 17:12:00,69.0,55.9,30.03,North,360,8.1,8.1,63,0.00,BKN,,0.01,WeatherDisplay:10.37,2013-09-16 21:12:00,
2013-09-16 17:17:00,69.1,56.4,30.03,North,351,8.1,8.1,64,0.00,BKN,,0.01,WeatherDisplay:10.37,2013-09-16 21:17:00,
2013-09-16 17:22:00,69.1,56.8,30.03,NW,321,9.2,9.2,65,0.00,BKN,,0.01,WeatherDisplay:10.37,2013-09-16 21:22:00,
2013-09-16 17:27:00,69.1,56.8,30.04,NW,306,9.2,9.2,65,0.00,BKN,,0.01,WeatherDisplay:10.37,2013-09-16 21:27:00,
2013-09-16 17:32:00,68.8,55.7,30.04,North,355,9.2,9.2,63,0.00,BKN,,0.01,WeatherDisplay:10.37,2013-09-16 21:32:00,
2013-09-16 17:37:00,68.5,56.3,30.04,NNW,331,8.1,8.1,65,0.00,BKN,,0.01,WeatherDisplay:10.37,2013-09-16 21:37:00,
2013-09-16 17:42:00,68.4,56.2,30.04,NW,325,8.1,8.1,65,0.00,BKN,,0.01,WeatherDisplay:10.37,2013-09-16 21:42:00,
2013-09-16 17:47:00,68.3,56.5,30.04,NNW,339,6.9,6.9,66,0.00,BKN,,0.01,WeatherDisplay:10.37,2013-09-16 21:47:00,
2013-09-16 17:52:00,68.4,56.2,30.04,NW,325,8.1,8.1,65,0.00,BKN,,0.01,WeatherDisplay:10.37,2013-09-16 21:52:00,
2013-09-16 17:57:00,68.3,56.5,30.04,NNW,337,5.8,5.8,66,0.00,BKN,,0.01,WeatherDisplay:10.37,2013-09-16 21:57:00,
2013-09-16 18:02:00,68.3,56.5,30.05,NW,318,7.0,7.0,66,0.00,BKN,,0.01,WeatherDisplay:10.37,2013-09-16 22:02:00,
2013-09-16 18:07:00,68.1,56.7,30.05,NNW,345,6.0,6.0,67,0.00,BKN,,0.01,WeatherDisplay:10.37,2013-09-16 22:07:00,
2013-09-16 18:12:00,67.7,56.3,30.05,NNW,338,4.6,4.6,67,0.00,BKN,,0.01,WeatherDisplay:10.37,2013-09-16 22:12:00,
2013-09-16 18:17:00,67.5,56.2,30.05,WNW,302,8.1,8.1,67,0.00,BKN,,0.01,WeatherDisplay:10.37,2013-09-16 22:17:00,
2013-09-16 18:22:00,67.1,56.2,30.05,NW,319,10.4,10.4,68,0.00,BKN,,0.01,WeatherDisplay:10.37,2013-09-16 22:22:00,
2013-09-16 18:27:00,67.0,56.5,30.06,NW,317,3.0,3.0,69,0.00,BKN,,0.01,WeatherDisplay:10.37,2013-09-16 22:27:00,
2013-09-16 18:32:00,66.8,56.3,30.06,NW,316,4.6,4.6,69,0.00,BKN,,0.01,WeatherDisplay:10.37,2013-09-16 22:32:00,
2013-09-16 18:37:00,66.7,56.6,30.06,NW,304,3.5,3.5,70,0.00,BKN,,0.01,WeatherDisplay:10.37,2013-09-16 22:37:00,
2013-09-16 18:42:00,66.4,56.7,30.06,NW,305,3.5,3.5,71,0.00,BKN,,0.01,WeatherDisplay:10.37,2013-09-16 22:42:00,
2013-09-16 18:47:00,66.1,56.8,30.06,NW,321,4.6,4.6,72,0.00,BKN,,0.01,WeatherDisplay:10.37,2013-09-16 22:47:00,
2013-09-16 18:52:00,65.7,56.4,30.06,WNW,302,4.0,4.0,72,0.00,BKN,,0.01,WeatherDisplay:10.37,2013-09-16 22:52:00,
2013-09-16 18:57:00,65.3,56.4,30.06,NNW,341,5.8,5.8,73,0.00,BKN,,0.01,WeatherDisplay:10.37,2013-09-16 22:57:00,
2013-09-16 19:02:00,65.0,56.5,30.07,WNW,290,3.5,3.5,74,0.00,BKN,,0.01,WeatherDisplay:10.37,2013-09-16 23:02:00,
2013-09-16 19:07:00,64.7,56.2,30.07,NW,310,3.5,3.5,74,0.00,BKN,,0.01,WeatherDisplay:10.37,2013-09-16 23:07:00,
2013-09-16 19:12:00,64.4,56.3,30.07,NW,306,3.5,3.5,75,0.00,BKN,,0.01,WeatherDisplay:10.37,2013-09-16 23:12:00,
2013-09-16 19:17:00,64.2,56.1,30.07,NW,304,3.5,3.5,75,0.00,BKN,,0.01,WeatherDisplay:10.37,2013-09-16 23:17:00,
2013-09-16 19:22:00,64.0,56.3,30.07,NW,304,3.5,3.5,76,0.00,BKN,,0.01,WeatherDisplay:10.37,2013-09-16 23:22:00,
2013-09-16 19:27:00,63.8,56.1,30.07,WNW,302,4.6,4.6,76,0.00,BKN,,0.01,WeatherDisplay:10.37,2013-09-16 23:27:00,
2013-09-16 19:32:00,63.5,56.2,30.08,WNW,301,3.5,3.5,77,0.00,BKN,,0.01,WeatherDisplay:10.37,2013-09-16 23:32:00,
2013-09-16 19:37:00,63.4,56.4,30.08,WNW,301,1.1,1.1,78,0.00,BKN,,0.01,WeatherDisplay:10.37,2013-09-16 23:37:00,
2013-09-16 19:42:00,63.2,56.6,30.08,WNW,301,1.1,1.1,79,0.00,BKN,,0.01,WeatherDisplay:10.37,2013-09-16 23:42:00,
2013-09-16 19:47:00,63.0,56.4,30.08,WNW,301,2.3,2.3,79,0.00,BKN,,0.01,WeatherDisplay:10.37,2013-09-16 23:47:00,
2013-09-16 19:52:00,62.9,56.3,30.09,WNW,300,2.3,2.3,79,0.00,BKN,,0.01,WeatherDisplay:10.37,2013-09-16 23:52:00,
2013-09-16 19:57:00,62.7,55.7,30.09,WNW,300,3.5,3.5,78,0.00,BKN,,0.01,WeatherDisplay:10.37,2013-09-16 23:57:00,
2013-09-16 20:02:00,62.5,55.5,30.09,WNW,300,4.6,4.6,78,0.00,SCT,,0.01,WeatherDisplay:10.37,2013-09-17 00:02:00,
2013-09-16 20:07:00,62.3,55.4,30.10,NW,308,3.5,3.5,78,0.00,SCT,,0.01,WeatherDisplay:10.37,2013-09-17 00:07:00,
2013-09-16 20:12:00,62.2,55.3,30.10,NW,325,4.6,4.6,78,0.00,SCT,,0.01,WeatherDisplay:10.37,2013-09-17 00:12:00,
2013-09-16 20:17:00,62.1,55.9,30.11,NNW,329,4.6,4.6,80,0.00,SCT,,0.01,WeatherDisplay:10.37,2013-09-17 00:17:00,
2013-09-16 20:22:00,62.0,55.8,30.11,NNW,327,3.5,3.5,80,0.00,SCT,,0.01,WeatherDisplay:10.37,2013-09-17 00:22:00,
2013-09-16 20:27:00,61.8,55.9,30.11,NW,317,8.1,8.1,81,0.00,SCT,,0.01,WeatherDisplay:10.37,2013-09-17 00:27:00,
2013-09-16 20:32:00,61.8,56.2,30.11,North,355,6.0,6.0,82,0.00,SCT,,0.01,WeatherDisplay:10.37,2013-09-17 00:32:00,
2013-09-16 20:37:00,61.7,55.8,30.12,North,11,9.2,9.2,81,0.00,SCT,,0.01,WeatherDisplay:10.37,2013-09-17 00:37:00,
2013-09-16 20:42:00,61.7,55.8,30.12,North,9,11.5,11.5,81,0.00,SCT,,0.01,WeatherDisplay:10.37,2013-09-17 00:42:00,
2013-09-16 20:47:00,61.4,55.2,30.12,North,5,11.5,11.5,80,0.00,SCT,,0.01,WeatherDisplay:10.37,2013-09-17 00:47:00,
2013-09-16 20:52:00,61.2,55.0,30.12,North,355,10.4,10.4,80,0.00,SCT,,0.01,WeatherDisplay:10.37,2013-09-17 00:52:00,
2013-09-16 20:57:00,61.1,54.9,30.13,NNW,348,10.4,10.4,80,0.00,SCT,,0.01,WeatherDisplay:10.37,2013-09-17 00:57:00,
2013-09-16 21:02:00,61.0,54.8,30.13,NNW,344,6.9,6.9,80,0.00,SCT,,0.01,WeatherDisplay:10.37,2013-09-17 01:02:00,
2013-09-16 21:08:00,61.0,54.1,30.13,North,5,8.1,8.1,78,0.00,SCT,,0.01,WeatherDisplay:10.37,2013-09-17 01:08:00,
2013-09-16 21:13:00,60.9,54.0,30.14,North,5,9.2,9.2,78,0.00,SCT,,0.01,WeatherDisplay:10.37,2013-09-17 01:13:00,
2013-09-16 21:18:00,60.8,53.5,30.14,North,5,8.1,8.1,77,0.00,SCT,,0.01,WeatherDisplay:10.37,2013-09-17 01:18:00,
2013-09-16 21:23:00,60.8,53.2,30.14,NNW,335,10.4,10.4,76,0.00,SCT,,0.01,WeatherDisplay:10.37,2013-09-17 01:23:00,
2013-09-16 21:28:00,60.7,52.0,30.14,NNW,330,10.0,10.0,73,0.00,SCT,,0.01,WeatherDisplay:10.37,2013-09-17 01:28:00,
2013-09-16 21:33:00,60.4,51.0,30.15,NNW,336,14.0,14.0,71,0.00,SCT,,0.01,WeatherDisplay:10.37,2013-09-17 01:33:00,
2013-09-16 21:38:00,60.4,50.6,30.15,NW,323,11.5,11.5,70,0.00,SCT,,0.01,WeatherDisplay:10.37,2013-09-17 01:38:00,
2013-09-16 21:43:00,60.2,50.0,30.15,NNE,24,13.8,13.8,69,0.00,SCT,,0.01,WeatherDisplay:10.37,2013-09-17 01:43:00,
2013-09-16 21:48:00,60.1,49.9,30.15,NW,325,16.1,16.1,69,0.00,SCT,,0.01,WeatherDisplay:10.37,2013-09-17 01:48:00,
2013-09-16 21:53:00,60.0,50.6,30.16,North,5,11.5,11.5,71,0.00,SCT,,0.01,WeatherDisplay:10.37,2013-09-17 01:53:00,
2013-09-16 21:58:00,59.8,50.8,30.16,NW,326,12.7,12.7,72,0.00,SCT,,0.01,WeatherDisplay:10.37,2013-09-17 01:58:00,
2013-09-16 22:03:00,59.6,50.9,30.16,North,9,13.8,13.8,73,0.00,SCT,,0.01,WeatherDisplay:10.37,2013-09-17 02:03:00,
2013-09-16 22:08:00,59.4,51.1,30.16,North,10,13.0,13.0,74,0.00,SCT,,0.01,WeatherDisplay:10.37,2013-09-17 02:08:00,
2013-09-16 22:13:00,59.1,50.8,30.16,North,9,15.0,15.0,74,0.00,SCT,,0.01,WeatherDisplay:10.37,2013-09-17 02:13:00,
2013-09-16 22:18:00,58.8,50.2,30.17,North,349,18.4,18.4,73,0.00,SCT,,0.01,WeatherDisplay:10.37,2013-09-17 02:18:00,
2013-09-16 22:23:00,58.7,50.4,30.17,North,355,17.3,17.3,74,0.00,SCT,,0.01,WeatherDisplay:10.37,2013-09-17 02:23:00,
2013-09-16 22:28:00,58.6,51.1,30.17,NNW,338,19.6,19.6,76,0.00,SCT,,0.01,WeatherDisplay:10.37,2013-09-17 02:28:00,
2013-09-16 22:33:00,58.4,50.5,30.18,North,5,17.3,17.3,75,0.00,SCT,,0.01,WeatherDisplay:10.37,2013-09-17 02:33:00,
2013-09-16 22:38:00,58.3,50.4,30.18,NNW,344,11.5,11.5,75,0.00,SCT,,0.01,WeatherDisplay:10.37,2013-09-17 02:38:00,
2013-09-16 22:43:00,58.0,50.5,30.18,NW,321,11.5,11.5,76,0.00,SCT,,0.01,WeatherDisplay:10.37,2013-09-17 02:43:00,
2013-09-16 22:48:00,57.8,49.9,30.18,NW,312,9.2,9.2,75,0.00,SCT,,0.01,WeatherDisplay:10.37,2013-09-17 02:48:00,
2013-09-16 22:53:00,57.5,49.6,30.19,North,349,9.0,9.0,75,0.00,SCT,,0.01,WeatherDisplay:10.37,2013-09-17 02:53:00,
2013-09-16 22:58:00,57.0,48.8,30.19,NW,309,8.1,8.1,74,0.00,SCT,,0.01,WeatherDisplay:10.37,2013-09-17 02:58:00,
2013-09-16 23:03:00,56.7,48.5,30.19,NW,307,14.0,14.0,74,0.00,CLR,,0.01,WeatherDisplay:10.37,2013-09-17 03:03:00,
2013-09-16 23:08:00,56.4,47.5,30.20,NNW,331,15.0,15.0,72,0.00,CLR,,0.01,WeatherDisplay:10.37,2013-09-17 03:08:00,
2013-09-16 23:13:00,56.4,48.6,30.20,North,355,10.4,10.4,75,0.00,CLR,,0.01,WeatherDisplay:10.37,2013-09-17 03:13:00,
2013-09-16 23:18:00,56.3,48.1,30.20,NNW,333,14.0,14.0,74,0.00,CLR,,0.01,WeatherDisplay:10.37,2013-09-17 03:18:00,
2013-09-16 23:23:00,56.1,46.4,30.20,NNW,344,19.6,19.6,70,0.00,CLR,,0.01,WeatherDisplay:10.37,2013-09-17 03:23:00,
2013-09-16 23:28:00,55.9,46.6,30.20,NNW,345,12.0,14.2,71,0.00,CLR,,0.01,WeatherDisplay:10.37,2013-09-17 03:28:00,
2013-09-16 23:33:00,55.7,46.4,30.21,NNW,342,16.1,16.1,71,0.00,CLR,,0.01,WeatherDisplay:10.37,2013-09-17 03:33:00,
2013-09-16 23:38:00,55.5,45.9,30.21,NNW,340,17.3,17.3,70,0.00,CLR,,0.01,WeatherDisplay:10.37,2013-09-17 03:38:00,
2013-09-16 23:43:00,55.3,46.1,30.21,NNW,340,16.1,16.1,71,0.00,CLR,,0.01,WeatherDisplay:10.37,2013-09-17 03:43:00,
2013-09-16 23:48:00,55.0,45.4,30.21,NNW,341,13.8,13.8,70,0.00,CLR,,0.01,WeatherDisplay:10.37,2013-09-17 03:48:00,
2013-09-16 23:53:00,54.8,45.6,30.22,North,5,16.1,16.1,71,0.00,CLR,,0.01,WeatherDisplay:10.37,2013-09-17 03:53:00,
2013-09-16 23:58:00,54.5,45.3,30.22,NNW,338,13.8,13.8,71,0.00,CLR,,0.01,WeatherDisplay:10.37,2013-09-17 03:58:00,